sensor_id;sensor_type;location;lat;lon;timestamp;pressure;altitude;pressure_sealevel;temperature;humidity
57024;BME280;42916;54.346;18.562;2023-02-11T00:00:27;101028.54;;;2.90;98.03
57024;BME280;42916;54.346;18.562;2023-02-11T00:03:13;101017.66;;;2.90;98.09
57024;BME280;42916;54.346;18.562;2023-02-11T00:05:40;101008.11;;;2.90;97.63
57024;BME280;42916;54.346;18.562;2023-02-11T00:08:07;101009.30;;;2.92;97.87
57024;BME280;42916;54.346;18.562;2023-02-11T00:10:34;101012.47;;;2.91;97.68
57024;BME280;42916;54.346;18.562;2023-02-11T00:13:00;101017.80;;;2.90;97.85
57024;BME280;42916;54.346;18.562;2023-02-11T00:15:27;101009.27;;;2.90;98.18
57024;BME280;42916;54.346;18.562;2023-02-11T00:17:54;100995.60;;;2.89;97.81
57024;BME280;42916;54.346;18.562;2023-02-11T00:20:21;100988.55;;;2.91;97.94
57024;BME280;42916;54.346;18.562;2023-02-11T00:22:47;100976.96;;;2.93;97.83
57024;BME280;42916;54.346;18.562;2023-02-11T00:25:14;100968.68;;;2.95;97.69
57024;BME280;42916;54.346;18.562;2023-02-11T00:27:41;100954.37;;;2.96;97.62
57024;BME280;42916;54.346;18.562;2023-02-11T00:30:09;100934.86;;;2.96;97.85
57024;BME280;42916;54.346;18.562;2023-02-11T00:32:36;100925.78;;;2.97;97.62
57024;BME280;42916;54.346;18.562;2023-02-11T00:35:05;100925.99;;;2.98;97.46
57024;BME280;42916;54.346;18.562;2023-02-11T00:37:32;100912.42;;;3.00;97.37
57024;BME280;42916;54.346;18.562;2023-02-11T00:40:03;100902.70;;;3.02;97.28
57024;BME280;42916;54.346;18.562;2023-02-11T00:42:32;100893.54;;;3.03;97.17
57024;BME280;42916;54.346;18.562;2023-02-11T00:45:01;100880.51;;;3.02;97.28
57024;BME280;42916;54.346;18.562;2023-02-11T00:47:27;100862.27;;;3.00;97.36
57024;BME280;42916;54.346;18.562;2023-02-11T00:49:54;100865.39;;;3.00;97.01
57024;BME280;42916;54.346;18.562;2023-02-11T00:52:21;100858.86;;;3.00;97.11
57024;BME280;42916;54.346;18.562;2023-02-11T00:54:48;100839.15;;;3.02;96.84
57024;BME280;42916;54.346;18.562;2023-02-11T00:57:14;100833.67;;;3.04;97.13
57024;BME280;42916;54.346;18.562;2023-02-11T00:59:41;100831.52;;;3.04;96.92
57024;BME280;42916;54.346;18.562;2023-02-11T01:02:08;100833.18;;;3.05;97.12
57024;BME280;42916;54.346;18.562;2023-02-11T01:04:35;100827.36;;;3.06;96.88
57024;BME280;42916;54.346;18.562;2023-02-11T01:07:02;100817.46;;;3.05;96.88
57024;BME280;42916;54.346;18.562;2023-02-11T01:09:29;100800.73;;;3.07;96.53
57024;BME280;42916;54.346;18.562;2023-02-11T01:11:56;100796.94;;;3.08;96.26
57024;BME280;42916;54.346;18.562;2023-02-11T01:14:23;100800.02;;;3.10;96.25
57024;BME280;42916;54.346;18.562;2023-02-11T01:16:50;100802.90;;;3.10;96.26
57024;BME280;42916;54.346;18.562;2023-02-11T01:19:17;100806.91;;;3.09;96.31
57024;BME280;42916;54.346;18.562;2023-02-11T01:21:45;100804.33;;;3.08;95.87
57024;BME280;42916;54.346;18.562;2023-02-11T01:24:12;100793.21;;;3.08;96.13
57024;BME280;42916;54.346;18.562;2023-02-11T01:26:39;100789.59;;;3.09;95.88
57024;BME280;42916;54.346;18.562;2023-02-11T01:29:05;100799.18;;;3.09;96.27
57024;BME280;42916;54.346;18.562;2023-02-11T01:31:32;100796.46;;;3.09;95.88
57024;BME280;42916;54.346;18.562;2023-02-11T01:34:00;100793.09;;;3.08;95.97
57024;BME280;42916;54.346;18.562;2023-02-11T01:36:27;100783.64;;;3.04;96.22
57024;BME280;42916;54.346;18.562;2023-02-11T01:38:53;100784.95;;;3.03;96.42
57024;BME280;42916;54.346;18.562;2023-02-11T01:41:20;100776.46;;;3.00;96.29
57024;BME280;42916;54.346;18.562;2023-02-11T01:43:48;100769.12;;;2.97;96.50
57024;BME280;42916;54.346;18.562;2023-02-11T01:49:06;100747.34;;;2.87;97.05
57024;BME280;42916;54.346;18.562;2023-02-11T01:51:58;100738.23;;;2.84;97.31
57024;BME280;42916;54.346;18.562;2023-02-11T01:54:30;100734.45;;;2.81;98.20
57024;BME280;42916;54.346;18.562;2023-02-11T01:57:23;100720.07;;;2.77;98.60
57024;BME280;42916;54.346;18.562;2023-02-11T02:03:05;100695.02;;;2.69;98.66
57024;BME280;42916;54.346;18.562;2023-02-11T02:08:35;100691.68;;;2.64;99.85
57024;BME280;42916;54.346;18.562;2023-02-11T02:11:05;100690.73;;;2.60;99.93
57024;BME280;42916;54.346;18.562;2023-02-11T02:13:34;100682.70;;;2.57;100.00
57024;BME280;42916;54.346;18.562;2023-02-11T02:16:04;100680.04;;;2.54;100.00
57024;BME280;42916;54.346;18.562;2023-02-11T02:18:47;100686.79;;;2.51;100.00
57024;BME280;42916;54.346;18.562;2023-02-11T02:40:16;100654.04;;;2.53;100.00
57024;BME280;42916;54.346;18.562;2023-02-11T02:42:46;100644.85;;;2.55;100.00
57024;BME280;42916;54.346;18.562;2023-02-11T02:45:13;100641.25;;;2.55;100.00
57024;BME280;42916;54.346;18.562;2023-02-11T02:47:41;100626.33;;;2.54;100.00
57024;BME280;42916;54.346;18.562;2023-02-11T02:50:08;100622.90;;;2.54;100.00
57024;BME280;42916;54.346;18.562;2023-02-11T02:55:51;100606.69;;;2.54;100.00
57024;BME280;42916;54.346;18.562;2023-02-11T03:07:22;100589.59;;;2.52;100.00
57024;BME280;42916;54.346;18.562;2023-02-11T03:10:00;100590.86;;;2.53;100.00
57024;BME280;42916;54.346;18.562;2023-02-11T03:12:29;100584.64;;;2.55;100.00
57024;BME280;42916;54.346;18.562;2023-02-11T03:14:58;100574.11;;;2.56;100.00
57024;BME280;42916;54.346;18.562;2023-02-11T03:17:27;100570.27;;;2.57;100.00
57024;BME280;42916;54.346;18.562;2023-02-11T03:19:56;100564.82;;;2.58;100.00
57024;BME280;42916;54.346;18.562;2023-02-11T03:22:31;100563.52;;;2.59;100.00
57024;BME280;42916;54.346;18.562;2023-02-11T03:24:59;100562.20;;;2.60;100.00
57024;BME280;42916;54.346;18.562;2023-02-11T03:27:42;100555.63;;;2.61;100.00
57024;BME280;42916;54.346;18.562;2023-02-11T03:30:26;100561.33;;;2.61;100.00
57024;BME280;42916;54.346;18.562;2023-02-11T03:32:59;100560.18;;;2.60;100.00
57024;BME280;42916;54.346;18.562;2023-02-11T03:35:38;100564.07;;;2.62;100.00
57024;BME280;42916;54.346;18.562;2023-02-11T03:38:12;100555.27;;;2.64;100.00
57024;BME280;42916;54.346;18.562;2023-02-11T03:40:42;100554.15;;;2.64;100.00
57024;BME280;42916;54.346;18.562;2023-02-11T03:45:44;100524.89;;;2.60;100.00
57024;BME280;42916;54.346;18.562;2023-02-11T03:48:13;100524.08;;;2.58;100.00
57024;BME280;42916;54.346;18.562;2023-02-11T03:50:43;100522.82;;;2.53;100.00
57024;BME280;42916;54.346;18.562;2023-02-11T03:53:13;100516.73;;;2.49;100.00
57024;BME280;42916;54.346;18.562;2023-02-11T03:55:41;100515.02;;;2.46;100.00
57024;BME280;42916;54.346;18.562;2023-02-11T03:58:09;100513.38;;;2.41;100.00
57024;BME280;42916;54.346;18.562;2023-02-11T04:00:39;100511.84;;;2.38;100.00
57024;BME280;42916;54.346;18.562;2023-02-11T04:03:07;100515.80;;;2.37;100.00
57024;BME280;42916;54.346;18.562;2023-02-11T04:05:35;100513.95;;;2.37;100.00
57024;BME280;42916;54.346;18.562;2023-02-11T04:08:03;100519.64;;;2.36;100.00
57024;BME280;42916;54.346;18.562;2023-02-11T04:10:30;100516.98;;;2.36;100.00
57024;BME280;42916;54.346;18.562;2023-02-11T04:12:57;100507.73;;;2.34;100.00
57024;BME280;42916;54.346;18.562;2023-02-11T04:15:23;100505.83;;;2.34;100.00
57024;BME280;42916;54.346;18.562;2023-02-11T04:17:51;100492.81;;;2.33;100.00
57024;BME280;42916;54.346;18.562;2023-02-11T04:20:18;100485.09;;;2.32;100.00
57024;BME280;42916;54.346;18.562;2023-02-11T04:22:45;100487.36;;;2.30;100.00
57024;BME280;42916;54.346;18.562;2023-02-11T04:25:12;100482.90;;;2.31;100.00
57024;BME280;42916;54.346;18.562;2023-02-11T04:27:39;100482.70;;;2.33;100.00
57024;BME280;42916;54.346;18.562;2023-02-11T04:30:06;100479.58;;;2.35;100.00
57024;BME280;42916;54.346;18.562;2023-02-11T04:32:34;100481.68;;;2.36;100.00
57024;BME280;42916;54.346;18.562;2023-02-11T04:35:00;100474.11;;;2.35;100.00
57024;BME280;42916;54.346;18.562;2023-02-11T04:37:28;100479.65;;;2.35;100.00
57024;BME280;42916;54.346;18.562;2023-02-11T04:39:55;100481.36;;;2.38;100.00
57024;BME280;42916;54.346;18.562;2023-02-11T04:42:22;100479.92;;;2.38;100.00
57024;BME280;42916;54.346;18.562;2023-02-11T04:44:49;100474.59;;;2.39;100.00
57024;BME280;42916;54.346;18.562;2023-02-11T04:47:16;100462.16;;;2.38;100.00
57024;BME280;42916;54.346;18.562;2023-02-11T04:49:43;100455.83;;;2.37;100.00
57024;BME280;42916;54.346;18.562;2023-02-11T04:52:10;100458.67;;;2.37;100.00
57024;BME280;42916;54.346;18.562;2023-02-11T04:54:37;100457.33;;;2.38;100.00
57024;BME280;42916;54.346;18.562;2023-02-11T04:57:05;100444.69;;;2.40;100.00
57024;BME280;42916;54.346;18.562;2023-02-11T04:59:31;100431.56;;;2.42;100.00
57024;BME280;42916;54.346;18.562;2023-02-11T05:01:58;100418.77;;;2.41;100.00
57024;BME280;42916;54.346;18.562;2023-02-11T05:04:25;100412.38;;;2.39;100.00
57024;BME280;42916;54.346;18.562;2023-02-11T05:06:52;100397.96;;;2.37;100.00
57024;BME280;42916;54.346;18.562;2023-02-11T05:09:18;100380.09;;;2.38;100.00
57024;BME280;42916;54.346;18.562;2023-02-11T05:11:45;100391.09;;;2.42;100.00
57024;BME280;42916;54.346;18.562;2023-02-11T05:14:12;100384.35;;;2.44;100.00
57024;BME280;42916;54.346;18.562;2023-02-11T05:16:39;100385.89;;;2.43;100.00
57024;BME280;42916;54.346;18.562;2023-02-11T05:19:05;100370.58;;;2.43;100.00
57024;BME280;42916;54.346;18.562;2023-02-11T05:21:32;100366.02;;;2.45;100.00
57024;BME280;42916;54.346;18.562;2023-02-11T05:23:59;100358.46;;;2.46;100.00
57024;BME280;42916;54.346;18.562;2023-02-11T05:26:26;100344.17;;;2.48;100.00
57024;BME280;42916;54.346;18.562;2023-02-11T05:28:53;100351.04;;;2.50;100.00
57024;BME280;42916;54.346;18.562;2023-02-11T05:31:20;100354.34;;;2.51;100.00
57024;BME280;42916;54.346;18.562;2023-02-11T05:33:46;100352.48;;;2.50;100.00
57024;BME280;42916;54.346;18.562;2023-02-11T05:36:13;100348.10;;;2.50;100.00
57024;BME280;42916;54.346;18.562;2023-02-11T05:38:40;100340.79;;;2.51;100.00
57024;BME280;42916;54.346;18.562;2023-02-11T05:41:09;100337.66;;;2.51;100.00
57024;BME280;42916;54.346;18.562;2023-02-11T05:43:36;100334.98;;;2.52;100.00
57024;BME280;42916;54.346;18.562;2023-02-11T05:46:03;100331.50;;;2.54;100.00
57024;BME280;42916;54.346;18.562;2023-02-11T05:48:31;100325.90;;;2.56;100.00
57024;BME280;42916;54.346;18.562;2023-02-11T05:50:58;100334.48;;;2.58;100.00
57024;BME280;42916;54.346;18.562;2023-02-11T05:53:24;100329.48;;;2.61;100.00
57024;BME280;42916;54.346;18.562;2023-02-11T05:55:51;100319.04;;;2.61;100.00
57024;BME280;42916;54.346;18.562;2023-02-11T05:58:18;100314.27;;;2.63;100.00
57024;BME280;42916;54.346;18.562;2023-02-11T06:00:45;100317.39;;;2.65;100.00
57024;BME280;42916;54.346;18.562;2023-02-11T06:03:11;100310.90;;;2.66;100.00
57024;BME280;42916;54.346;18.562;2023-02-11T06:05:38;100308.84;;;2.67;100.00
57024;BME280;42916;54.346;18.562;2023-02-11T06:08:05;100298.36;;;2.68;100.00
57024;BME280;42916;54.346;18.562;2023-02-11T06:10:31;100300.52;;;2.72;100.00
57024;BME280;42916;54.346;18.562;2023-02-11T06:12:58;100296.45;;;2.74;100.00
57024;BME280;42916;54.346;18.562;2023-02-11T06:15:26;100290.73;;;2.77;100.00
57024;BME280;42916;54.346;18.562;2023-02-11T06:17:53;100285.86;;;2.79;100.00
57024;BME280;42916;54.346;18.562;2023-02-11T06:20:20;100285.73;;;2.83;100.00
57024;BME280;42916;54.346;18.562;2023-02-11T06:22:46;100286.31;;;2.87;100.00
57024;BME280;42916;54.346;18.562;2023-02-11T06:25:13;100290.08;;;2.92;100.00
57024;BME280;42916;54.346;18.562;2023-02-11T06:27:40;100290.41;;;2.95;100.00
57024;BME280;42916;54.346;18.562;2023-02-11T06:30:07;100292.05;;;2.97;100.00
57024;BME280;42916;54.346;18.562;2023-02-11T06:32:34;100287.42;;;3.01;100.00
57024;BME280;42916;54.346;18.562;2023-02-11T06:35:03;100279.39;;;3.04;100.00
57024;BME280;42916;54.346;18.562;2023-02-11T06:37:29;100279.02;;;3.06;100.00
57024;BME280;42916;54.346;18.562;2023-02-11T06:39:56;100278.77;;;3.10;100.00
57024;BME280;42916;54.346;18.562;2023-02-11T06:42:23;100280.26;;;3.12;100.00
57024;BME280;42916;54.346;18.562;2023-02-11T06:44:50;100285.93;;;3.13;100.00
57024;BME280;42916;54.346;18.562;2023-02-11T06:47:16;100287.15;;;3.16;100.00
57024;BME280;42916;54.346;18.562;2023-02-11T06:49:43;100290.50;;;3.18;100.00
57024;BME280;42916;54.346;18.562;2023-02-11T06:52:10;100298.52;;;3.21;100.00
57024;BME280;42916;54.346;18.562;2023-02-11T06:54:36;100295.16;;;3.22;100.00
57024;BME280;42916;54.346;18.562;2023-02-11T06:57:03;100300.55;;;3.23;100.00
57024;BME280;42916;54.346;18.562;2023-02-11T06:59:30;100313.56;;;3.24;100.00
57024;BME280;42916;54.346;18.562;2023-02-11T07:01:57;100314.35;;;3.24;100.00
57024;BME280;42916;54.346;18.562;2023-02-11T07:04:23;100324.79;;;3.27;100.00
57024;BME280;42916;54.346;18.562;2023-02-11T07:06:50;100322.84;;;3.28;100.00
57024;BME280;42916;54.346;18.562;2023-02-11T07:09:17;100324.73;;;3.31;100.00
57024;BME280;42916;54.346;18.562;2023-02-11T07:11:43;100326.75;;;3.36;100.00
57024;BME280;42916;54.346;18.562;2023-02-11T07:14:10;100316.44;;;3.41;100.00
57024;BME280;42916;54.346;18.562;2023-02-11T07:16:38;100324.66;;;3.46;100.00
57024;BME280;42916;54.346;18.562;2023-02-11T07:19:05;100317.19;;;3.54;100.00
57024;BME280;42916;54.346;18.562;2023-02-11T07:21:32;100318.38;;;3.59;100.00
57024;BME280;42916;54.346;18.562;2023-02-11T07:23:59;100314.39;;;3.65;100.00
57024;BME280;42916;54.346;18.562;2023-02-11T07:26:26;100300.61;;;3.67;100.00
57024;BME280;42916;54.346;18.562;2023-02-11T07:28:53;100285.94;;;3.71;100.00
57024;BME280;42916;54.346;18.562;2023-02-11T07:31:24;100275.87;;;3.75;100.00
57024;BME280;42916;54.346;18.562;2023-02-11T07:33:53;100279.77;;;3.79;100.00
57024;BME280;42916;54.346;18.562;2023-02-11T07:36:21;100265.07;;;3.82;100.00
57024;BME280;42916;54.346;18.562;2023-02-11T07:38:48;100261.91;;;3.85;100.00
57024;BME280;42916;54.346;18.562;2023-02-11T07:41:18;100276.95;;;3.89;100.00
57024;BME280;42916;54.346;18.562;2023-02-11T07:43:45;100274.78;;;3.93;100.00
57024;BME280;42916;54.346;18.562;2023-02-11T07:46:15;100252.63;;;3.95;100.00
57024;BME280;42916;54.346;18.562;2023-02-11T07:48:43;100262.10;;;3.97;100.00
57024;BME280;42916;54.346;18.562;2023-02-11T07:51:12;100248.80;;;3.99;100.00
57024;BME280;42916;54.346;18.562;2023-02-11T07:53:39;100236.31;;;4.02;100.00
57024;BME280;42916;54.346;18.562;2023-02-11T07:56:07;100246.23;;;4.05;100.00
57024;BME280;42916;54.346;18.562;2023-02-11T07:58:35;100258.47;;;4.11;100.00
57024;BME280;42916;54.346;18.562;2023-02-11T08:01:08;100254.02;;;4.18;100.00
57024;BME280;42916;54.346;18.562;2023-02-11T08:03:36;100246.24;;;4.24;100.00
57024;BME280;42916;54.346;18.562;2023-02-11T08:06:08;100255.20;;;4.29;100.00
57024;BME280;42916;54.346;18.562;2023-02-11T08:08:35;100242.74;;;4.33;100.00
57024;BME280;42916;54.346;18.562;2023-02-11T08:11:13;100241.02;;;4.38;100.00
57024;BME280;42916;54.346;18.562;2023-02-11T08:13:41;100239.06;;;4.44;100.00
57024;BME280;42916;54.346;18.562;2023-02-11T08:16:08;100241.23;;;4.48;100.00
57024;BME280;42916;54.346;18.562;2023-02-11T08:18:35;100249.95;;;4.51;100.00
57024;BME280;42916;54.346;18.562;2023-02-11T08:21:06;100243.87;;;4.55;100.00
57024;BME280;42916;54.346;18.562;2023-02-11T08:23:39;100242.19;;;4.58;100.00
57024;BME280;42916;54.346;18.562;2023-02-11T08:26:09;100259.57;;;4.60;100.00
57024;BME280;42916;54.346;18.562;2023-02-11T08:28:38;100246.33;;;4.63;100.00
57024;BME280;42916;54.346;18.562;2023-02-11T08:31:12;100240.55;;;4.66;100.00
57024;BME280;42916;54.346;18.562;2023-02-11T08:33:39;100220.58;;;4.69;100.00
57024;BME280;42916;54.346;18.562;2023-02-11T08:36:08;100212.83;;;4.75;100.00
57024;BME280;42916;54.346;18.562;2023-02-11T08:38:36;100204.09;;;4.80;100.00
57024;BME280;42916;54.346;18.562;2023-02-11T08:41:04;100205.68;;;4.84;100.00
57024;BME280;42916;54.346;18.562;2023-02-11T08:43:31;100193.50;;;4.88;100.00
57024;BME280;42916;54.346;18.562;2023-02-11T08:45:59;100185.02;;;4.89;100.00
57024;BME280;42916;54.346;18.562;2023-02-11T08:48:26;100186.42;;;4.91;100.00
57024;BME280;42916;54.346;18.562;2023-02-11T08:50:55;100181.48;;;4.90;100.00
57024;BME280;42916;54.346;18.562;2023-02-11T08:53:22;100185.02;;;4.90;100.00
57024;BME280;42916;54.346;18.562;2023-02-11T08:55:51;100194.50;;;4.92;100.00
57024;BME280;42916;54.346;18.562;2023-02-11T08:58:18;100195.69;;;4.98;100.00
57024;BME280;42916;54.346;18.562;2023-02-11T09:00:46;100195.55;;;5.02;100.00
57024;BME280;42916;54.346;18.562;2023-02-11T09:03:14;100201.98;;;5.06;100.00
57024;BME280;42916;54.346;18.562;2023-02-11T09:05:46;100222.78;;;5.09;100.00
57024;BME280;42916;54.346;18.562;2023-02-11T09:08:13;100221.55;;;5.15;100.00
57024;BME280;42916;54.346;18.562;2023-02-11T09:10:40;100231.79;;;5.20;100.00
57024;BME280;42916;54.346;18.562;2023-02-11T09:13:07;100234.70;;;5.26;100.00
57024;BME280;42916;54.346;18.562;2023-02-11T09:15:35;100238.50;;;5.32;100.00
57024;BME280;42916;54.346;18.562;2023-02-11T09:18:02;100231.17;;;5.38;100.00
57024;BME280;42916;54.346;18.562;2023-02-11T09:20:29;100243.96;;;5.41;100.00
57024;BME280;42916;54.346;18.562;2023-02-11T09:22:57;100242.14;;;5.44;100.00
57024;BME280;42916;54.346;18.562;2023-02-11T09:25:24;100235.13;;;5.44;100.00
57024;BME280;42916;54.346;18.562;2023-02-11T09:27:51;100219.81;;;5.44;100.00
57024;BME280;42916;54.346;18.562;2023-02-11T09:30:19;100208.61;;;5.47;100.00
57024;BME280;42916;54.346;18.562;2023-02-11T09:32:46;100224.58;;;5.54;100.00
57024;BME280;42916;54.346;18.562;2023-02-11T09:35:13;100219.19;;;5.60;100.00
57024;BME280;42916;54.346;18.562;2023-02-11T09:37:40;100226.23;;;5.62;100.00
57024;BME280;42916;54.346;18.562;2023-02-11T09:40:08;100225.92;;;5.61;100.00
57024;BME280;42916;54.346;18.562;2023-02-11T09:42:45;100232.11;;;5.63;100.00
57024;BME280;42916;54.346;18.562;2023-02-11T09:45:20;100249.27;;;5.63;100.00
57024;BME280;42916;54.346;18.562;2023-02-11T09:48:14;100247.42;;;5.61;100.00
57024;BME280;42916;54.346;18.562;2023-02-11T09:50:49;100250.00;;;5.58;100.00
57024;BME280;42916;54.346;18.562;2023-02-11T09:53:26;100267.24;;;5.56;100.00
57024;BME280;42916;54.346;18.562;2023-02-11T09:55:56;100284.92;;;5.55;100.00
57024;BME280;42916;54.346;18.562;2023-02-11T09:58:33;100282.85;;;5.57;100.00
57024;BME280;42916;54.346;18.562;2023-02-11T10:01:29;100268.23;;;5.56;100.00
57024;BME280;42916;54.346;18.562;2023-02-11T10:04:12;100271.63;;;5.54;100.00
57024;BME280;42916;54.346;18.562;2023-02-11T10:09:27;100267.19;;;5.57;100.00
57024;BME280;42916;54.346;18.562;2023-02-11T10:12:09;100245.02;;;5.67;100.00
57024;BME280;42916;54.346;18.562;2023-02-11T10:21:22;100257.36;;;5.93;100.00
57024;BME280;42916;54.346;18.562;2023-02-11T10:23:53;100264.23;;;5.88;100.00
57024;BME280;42916;54.346;18.562;2023-02-11T10:26:22;100273.58;;;5.85;100.00
57024;BME280;42916;54.346;18.562;2023-02-11T10:28:51;100285.02;;;5.83;100.00
57024;BME280;42916;54.346;18.562;2023-02-11T10:31:36;100289.88;;;5.84;100.00
57024;BME280;42916;54.346;18.562;2023-02-11T10:34:09;100302.86;;;5.85;100.00
57024;BME280;42916;54.346;18.562;2023-02-11T10:36:39;100302.21;;;5.87;100.00
57024;BME280;42916;54.346;18.562;2023-02-11T10:39:19;100314.55;;;5.90;100.00
57024;BME280;42916;54.346;18.562;2023-02-11T10:42:09;100323.08;;;5.94;100.00
57024;BME280;42916;54.346;18.562;2023-02-11T10:44:38;100318.74;;;5.93;100.00
57024;BME280;42916;54.346;18.562;2023-02-11T10:47:14;100336.58;;;5.92;100.00
57024;BME280;42916;54.346;18.562;2023-02-11T10:49:45;100336.16;;;5.91;100.00
57024;BME280;42916;54.346;18.562;2023-02-11T10:52:24;100340.34;;;5.90;100.00
57024;BME280;42916;54.346;18.562;2023-02-11T10:55:00;100349.25;;;5.89;100.00
57024;BME280;42916;54.346;18.562;2023-02-11T10:57:40;100360.84;;;5.89;100.00
57024;BME280;42916;54.346;18.562;2023-02-11T11:02:43;100371.41;;;5.81;100.00
57024;BME280;42916;54.346;18.562;2023-02-11T11:05:19;100370.95;;;5.80;100.00
57024;BME280;42916;54.346;18.562;2023-02-11T11:07:54;100376.11;;;5.79;100.00
57024;BME280;42916;54.346;18.562;2023-02-11T11:13:28;100385.34;;;5.77;100.00
57024;BME280;42916;54.346;18.562;2023-02-11T11:16:29;100383.10;;;5.77;100.00
57024;BME280;42916;54.346;18.562;2023-02-11T11:21:43;100403.58;;;5.81;100.00
57024;BME280;42916;54.346;18.562;2023-02-11T11:24:43;100406.52;;;5.83;100.00
57024;BME280;42916;54.346;18.562;2023-02-11T11:27:17;100411.22;;;5.85;100.00
57024;BME280;42916;54.346;18.562;2023-02-11T11:29:47;100408.21;;;5.86;100.00
57024;BME280;42916;54.346;18.562;2023-02-11T11:32:33;100411.11;;;5.87;100.00
57024;BME280;42916;54.346;18.562;2023-02-11T11:35:06;100414.74;;;5.89;100.00
57024;BME280;42916;54.346;18.562;2023-02-11T11:37:43;100409.45;;;5.91;100.00
57024;BME280;42916;54.346;18.562;2023-02-11T11:42:41;100414.85;;;5.96;100.00
57024;BME280;42916;54.346;18.562;2023-02-11T11:58:17;100432.77;;;6.04;100.00
57024;BME280;42916;54.346;18.562;2023-02-11T12:07:20;100440.35;;;6.14;100.00
57024;BME280;42916;54.346;18.562;2023-02-11T12:09:52;100441.34;;;6.18;100.00
57024;BME280;42916;54.346;18.562;2023-02-11T12:23:57;100462.51;;;6.46;100.00
57024;BME280;42916;54.346;18.562;2023-02-11T12:26:37;100462.20;;;6.51;100.00
57024;BME280;42916;54.346;18.562;2023-02-11T12:34:40;100478.91;;;6.66;100.00
57024;BME280;42916;54.346;18.562;2023-02-11T12:40:16;100492.42;;;6.66;100.00
57024;BME280;42916;54.346;18.562;2023-02-11T12:54:28;100509.39;;;6.62;100.00
57024;BME280;42916;54.346;18.562;2023-02-11T12:57:06;100513.49;;;6.63;100.00
57024;BME280;42916;54.346;18.562;2023-02-11T12:59:57;100505.70;;;6.65;100.00
57024;BME280;42916;54.346;18.562;2023-02-11T13:05:11;100511.97;;;6.69;100.00
57024;BME280;42916;54.346;18.562;2023-02-11T13:07:45;100517.19;;;6.73;100.00
57024;BME280;42916;54.346;18.562;2023-02-11T13:12:42;100528.70;;;6.77;100.00
57024;BME280;42916;54.346;18.562;2023-02-11T13:15:30;100535.48;;;6.78;100.00
57024;BME280;42916;54.346;18.562;2023-02-11T13:18:09;100527.70;;;6.78;100.00
57024;BME280;42916;54.346;18.562;2023-02-11T13:23:49;100543.98;;;6.82;100.00
57024;BME280;42916;54.346;18.562;2023-02-11T13:28:56;100545.70;;;6.83;100.00
57024;BME280;42916;54.346;18.562;2023-02-11T13:31:26;100546.11;;;6.83;100.00
57024;BME280;42916;54.346;18.562;2023-02-11T13:33:55;100546.56;;;6.84;100.00
57024;BME280;42916;54.346;18.562;2023-02-11T13:36:24;100543.89;;;6.85;100.00
57024;BME280;42916;54.346;18.562;2023-02-11T13:38:58;100553.40;;;6.86;100.00
57024;BME280;42916;54.346;18.562;2023-02-11T13:41:41;100557.54;;;6.85;100.00
57024;BME280;42916;54.346;18.562;2023-02-11T13:47:21;100566.61;;;6.87;100.00
57024;BME280;42916;54.346;18.562;2023-02-11T13:49:41;100574.92;;;6.88;100.00
57024;BME280;42916;54.346;18.562;2023-02-11T13:54:48;100584.29;;;6.87;100.00
57024;BME280;42916;54.346;18.562;2023-02-11T14:02:35;100590.10;;;6.85;100.00
57024;BME280;42916;54.346;18.562;2023-02-11T14:05:31;100602.98;;;6.87;100.00
57024;BME280;42916;54.346;18.562;2023-02-11T14:08:24;100602.64;;;6.87;100.00
57024;BME280;42916;54.346;18.562;2023-02-11T14:16:20;100624.80;;;6.86;100.00
57024;BME280;42916;54.346;18.562;2023-02-11T14:26:50;100651.01;;;6.82;100.00
57024;BME280;42916;54.346;18.562;2023-02-11T14:32:03;100661.02;;;6.80;100.00
57024;BME280;42916;54.346;18.562;2023-02-11T14:37:46;100676.14;;;6.76;100.00
57024;BME280;42916;54.346;18.562;2023-02-11T14:41:25;100688.89;;;6.74;100.00
57024;BME280;42916;54.346;18.562;2023-02-11T14:43:27;100696.27;;;6.73;100.00
57024;BME280;42916;54.346;18.562;2023-02-11T14:45:56;100695.19;;;6.73;100.00
57024;BME280;42916;54.346;18.562;2023-02-11T14:48:29;100699.05;;;6.72;100.00
57024;BME280;42916;54.346;18.562;2023-02-11T14:51:01;100708.48;;;6.69;100.00
57024;BME280;42916;54.346;18.562;2023-02-11T14:53:31;100714.17;;;6.69;100.00
57024;BME280;42916;54.346;18.562;2023-02-11T14:55:58;100727.05;;;6.67;100.00
57024;BME280;42916;54.346;18.562;2023-02-11T14:58:29;100732.55;;;6.66;100.00
57024;BME280;42916;54.346;18.562;2023-02-11T15:01:03;100732.32;;;6.68;100.00
57024;BME280;42916;54.346;18.562;2023-02-11T15:08:35;100767.70;;;6.66;100.00
57024;BME280;42916;54.346;18.562;2023-02-11T15:11:09;100776.77;;;6.64;100.00
57024;BME280;42916;54.346;18.562;2023-02-11T15:13:37;100785.13;;;6.60;100.00
57024;BME280;42916;54.346;18.562;2023-02-11T15:16:08;100795.88;;;6.55;100.00
57024;BME280;42916;54.346;18.562;2023-02-11T15:18:39;100797.13;;;6.51;100.00
57024;BME280;42916;54.346;18.562;2023-02-11T15:21:08;100794.67;;;6.44;100.00
57024;BME280;42916;54.346;18.562;2023-02-11T15:23:35;100801.42;;;6.37;100.00
57024;BME280;42916;54.346;18.562;2023-02-11T15:26:11;100799.66;;;6.32;100.00
57024;BME280;42916;54.346;18.562;2023-02-11T15:28:45;100807.09;;;6.26;100.00
57024;BME280;42916;54.346;18.562;2023-02-11T15:31:20;100815.38;;;6.25;100.00
57024;BME280;42916;54.346;18.562;2023-02-11T15:33:49;100821.87;;;6.22;100.00
57024;BME280;42916;54.346;18.562;2023-02-11T15:36:18;100820.13;;;6.20;100.00